Airport ICAO


09:21 UTC

-1°C

No significant clouds


An affordable passengers' Moving Map for your aircraft. Made for the iPad and the iPhone
More information here

LFOB Tille


Beauvais FRANCE   VFR


METAR LFOB 180900Z AUTO VRB01KT 9000 NSC M01/M02 Q1019 NOSIG 0h21min

TAF LFOB 180500Z 1806/1906 VRB03KT CAVOK BECMG 1811/1813 16010KT PROB30 1822/1903 BKN004 4h21min





NOTAMS

OPEN